Time;durP1;ratioP1;P1;durP2;ratioP2;P2;SDS_P1;SDS_P2;PMS_P1;PMS_P2;Temp;Humidity;BMP_temperature;BMP_pressure;BME280_temperature;BME280_humidity;BME280_pressure;Samples;Min_cycle;Max_cycle;Signal;HPM_P1;HPM_P2
2023/12/08 00:02:07;;;;;;;;;;;;;;;16.31;47.77;100982.56;4987967;28;2084;-53
2023/12/08 00:04:33;;;;;;;;;;;;;;;15.89;49.05;100989.72;4989727;28;1173;-53
2023/12/08 00:06:58;;;;;;;;;;;;;;;17.13;46.15;100986.72;4996075;28;1031;-54
2023/12/08 00:09:24;;;;;;;;;;;;;;;16.64;47.23;100985.19;4983721;28;1516;-51
2023/12/08 00:11:50;;;;;;;;;;;;;;;16.10;48.47;100980.81;4996400;28;1118;-52
2023/12/08 00:14:15;;;;;;;;;;;;;;;15.90;49.06;100987.81;4996355;28;1082;-54
2023/12/08 00:16:41;;;;;;;;;;;;;;;17.33;45.81;100989.47;4984488;28;1441;-49
2023/12/08 00:19:08;;;;;;;;;;;;;;;16.65;47.10;100982.16;4993910;28;1068;-51
2023/12/08 00:21:34;;;;;;;;;;;;;;;16.05;48.57;100985.16;4996221;28;1968;-53
2023/12/08 00:24:00;;;;;;;;;;;;;;;15.78;49.09;100984.38;4983607;28;1155;-52
2023/12/08 00:26:25;;;;;;;;;;;;;;;16.22;48.48;100973.19;4995743;28;1084;-53
2023/12/08 00:28:51;;;;;;;;;;;;;;;17.40;45.28;100969.97;4988836;28;1107;-53
2023/12/08 00:31:16;;;;;;;;;;;;;;;16.49;47.62;100974.97;4988548;28;1106;-53
2023/12/08 00:33:43;;;;;;;;;;;;;;;16.03;48.56;100965.41;4993630;28;1032;-52
2023/12/08 00:36:12;;;;;;;;;;;;;;;17.34;45.57;100976.59;4992034;28;1143;-54
2023/12/08 00:38:38;;;;;;;;;;;;;;;16.45;47.27;100976.59;4998868;28;1139;-53
2023/12/08 00:41:04;;;;;;;;;;;;;;;16.03;48.51;100972.78;4998007;28;2025;-54
2023/12/08 00:43:29;;;;;;;;;;;;;;;17.07;46.43;100970.22;4999474;28;1241;-50
2023/12/08 00:45:55;;;;;;;;;;;;;;;16.69;47.07;100969.56;4999838;28;1052;-52
2023/12/08 00:48:20;;;;;;;;;;;;;;;16.10;48.40;100962.41;4994815;28;1110;-52
2023/12/08 00:50:46;;;;;;;;;;;;;;;15.83;49.00;100957.06;4992027;28;1179;-53
2023/12/08 00:53:11;;;;;;;;;;;;;;;15.83;49.29;100951.56;4986161;28;1180;-52
2023/12/08 00:55:37;;;;;;;;;;;;;;;17.25;45.75;100951.53;4988493;28;1124;-53
2023/12/08 00:58:03;;;;;;;;;;;;;;;16.73;46.69;100951.44;4984988;28;1140;-51
2023/12/08 01:00:28;;;;;;;;;;;;;;;16.10;48.51;100947.88;4999345;28;1969;-53
2023/12/08 01:02:54;;;;;;;;;;;;;;;15.91;49.05;100945.59;4994608;28;1094;-48
2023/12/08 01:05:19;;;;;;;;;;;;;;;17.27;45.84;100943.88;4979862;28;1528;-52
2023/12/08 01:07:45;;;;;;;;;;;;;;;16.53;47.20;100954.13;4992916;28;1076;-52
2023/12/08 01:10:10;;;;;;;;;;;;;;;15.95;48.85;100949.44;4980343;28;1115;-54
2023/12/08 01:12:36;;;;;;;;;;;;;;;15.77;49.30;100952.56;4993207;28;1231;-53
2023/12/08 01:15:02;;;;;;;;;;;;;;;17.12;46.12;100946.59;4991640;28;1113;-51
2023/12/08 01:17:27;;;;;;;;;;;;;;;16.92;46.35;100948.22;4989912;28;1073;-52
2023/12/08 01:19:53;;;;;;;;;;;;;;;16.22;48.11;100943.00;4999630;28;1976;-52
2023/12/08 01:22:18;;;;;;;;;;;;;;;15.86;48.72;100948.28;4998721;28;1064;-53
2023/12/08 01:24:44;;;;;;;;;;;;;;;15.97;48.63;100950.00;4999240;28;1178;-53
2023/12/08 01:27:09;;;;;;;;;;;;;;;17.27;45.44;100952.94;4986362;28;1176;-50
2023/12/08 01:29:35;;;;;;;;;;;;;;;16.34;47.75;100945.53;4984270;28;916;-53
2023/12/08 01:32:00;;;;;;;;;;;;;;;15.96;48.54;100958.50;4997860;28;1160;-55
2023/12/08 01:34:26;;;;;;;;;;;;;;;16.01;48.67;100950.31;4987441;28;1090;-55
2023/12/08 01:36:52;;;;;;;;;;;;;;;17.32;45.31;100943.03;4995842;28;1403;-55
2023/12/08 01:39:17;;;;;;;;;;;;;;;16.39;47.43;100940.88;4988780;28;1116;-53
2023/12/08 01:41:43;;;;;;;;;;;;;;;15.94;48.74;100925.84;4984459;28;1918;-54
2023/12/08 01:44:08;;;;;;;;;;;;;;;15.90;48.71;100932.97;4988698;28;1161;-54
2023/12/08 01:46:34;;;;;;;;;;;;;;;17.30;45.58;100926.81;4992554;28;1061;-55
2023/12/08 01:49:00;;;;;;;;;;;;;;;16.54;47.26;100926.41;4988965;28;1112;-54
2023/12/08 01:51:25;;;;;;;;;;;;;;;15.99;48.64;100927.78;4997481;28;1124;-53
2023/12/08 01:53:51;;;;;;;;;;;;;;;15.80;48.93;100935.66;4983531;28;845;-54
2023/12/08 01:56:16;;;;;;;;;;;;;;;17.19;45.81;100930.66;4977746;28;1162;-54
2023/12/08 01:58:42;;;;;;;;;;;;;;;16.68;46.68;100926.72;4989442;28;1171;-52
2023/12/08 02:01:07;;;;;;;;;;;;;;;16.07;48.17;100933.63;4996971;28;1910;-55
2023/12/08 02:03:33;;;;;;;;;;;;;;;15.77;49.12;100933.38;4997956;28;1134;-54
2023/12/08 02:05:59;;;;;;;;;;;;;;;16.64;46.93;100942.06;4984711;28;1103;-54
2023/12/08 02:08:24;;;;;;;;;;;;;;;17.20;45.49;100949.63;4997061;28;1163;-53
2023/12/08 02:10:50;;;;;;;;;;;;;;;16.24;47.72;100957.28;4997974;28;1127;-53
2023/12/08 02:13:16;;;;;;;;;;;;;;;15.85;48.61;100944.72;4988829;28;1120;-52
2023/12/08 02:15:42;;;;;;;;;;;;;;;16.44;47.53;100948.31;4981205;28;1203;-50
2023/12/08 02:18:08;;;;;;;;;;;;;;;17.10;45.87;100944.94;4991260;28;857;-54
2023/12/08 02:20:33;;;;;;;;;;;;;;;16.25;47.81;100956.19;4993216;28;1985;-54
2023/12/08 02:22:59;;;;;;;;;;;;;;;15.86;48.62;100951.03;4987008;28;1124;-52
2023/12/08 02:25:25;;;;;;;;;;;;;;;17.01;46.30;100965.00;4996544;28;1390;-54
2023/12/08 02:27:50;;;;;;;;;;;;;;;16.63;46.84;100953.31;4998246;28;1095;-54
2023/12/08 02:30:16;;;;;;;;;;;;;;;16.07;48.43;100954.72;4994679;28;989;-52
2023/12/08 02:32:44;;;;;;;;;;;;;;;15.76;49.00;100964.66;4978941;28;1096;-53
2023/12/08 02:35:10;;;;;;;;;;;;;;;16.83;46.64;100969.03;5006631;28;1092;-52
2023/12/08 02:37:36;;;;;;;;;;;;;;;16.74;46.58;100969.56;4977337;28;1084;-54
2023/12/08 02:40:02;;;;;;;;;;;;;;;16.11;48.07;100971.50;4993866;28;1974;-53
2023/12/08 02:42:27;;;;;;;;;;;;;;;16.10;48.50;100976.13;4988020;28;1302;-54
2023/12/08 02:44:53;;;;;;;;;;;;;;;17.14;45.55;100980.97;4984980;28;1192;-54
2023/12/08 02:47:19;;;;;;;;;;;;;;;16.29;47.51;100981.19;4987922;28;1494;-53
2023/12/08 02:49:44;;;;;;;;;;;;;;;15.85;48.64;100991.34;4978082;28;1093;-53
2023/12/08 02:52:10;;;;;;;;;;;;;;;16.24;47.89;100992.94;4977437;28;1132;-55
2023/12/08 02:54:36;;;;;;;;;;;;;;;16.90;46.13;100997.94;4979342;28;939;-54
2023/12/08 02:57:01;;;;;;;;;;;;;;;16.05;48.10;101001.63;4987261;28;1164;-53
2023/12/08 02:59:27;;;;;;;;;;;;;;;16.60;47.08;101010.41;4994788;28;1075;-54
2023/12/08 03:01:52;;;;;;;;;;;;;;;17.30;45.08;101017.53;4977798;28;1981;-56
2023/12/08 03:04:18;;;;;;;;;;;;;;;16.37;47.47;101019.91;4978264;28;1120;-55
2023/12/08 03:06:43;;;;;;;;;;;;;;;15.92;48.59;101024.00;4995242;28;850;-51
2023/12/08 03:09:09;;;;;;;;;;;;;;;17.04;46.09;101027.63;4984616;28;1162;-53
2023/12/08 03:11:35;;;;;;;;;;;;;;;16.55;47.02;101026.03;4988399;28;1079;-54
2023/12/08 03:14:00;;;;;;;;;;;;;;;16.03;48.02;101025.75;4980317;28;1120;-53
2023/12/08 03:16:26;;;;;;;;;;;;;;;16.49;47.31;101036.16;4988288;28;1159;-55
2023/12/08 03:18:51;;;;;;;;;;;;;;;17.42;44.86;101045.59;4979944;28;919;-54
2023/12/08 03:21:20;;;;;;;;;;;;;;;16.42;47.26;101041.91;4986901;28;1907;-54
2023/12/08 03:23:46;;;;;;;;;;;;;;;16.01;48.32;101041.63;4983972;28;1175;-54
2023/12/08 03:26:11;;;;;;;;;;;;;;;16.16;47.91;101045.56;4987362;28;1051;-55
2023/12/08 03:28:37;;;;;;;;;;;;;;;17.32;45.14;101039.22;4990639;28;1172;-54
2023/12/08 03:31:02;;;;;;;;;;;;;;;16.36;47.31;101034.72;4986616;28;900;-55
2023/12/08 03:33:28;;;;;;;;;;;;;;;16.74;46.53;101040.94;4992904;28;1108;-54
2023/12/08 03:35:53;;;;;;;;;;;;;;;16.99;45.71;101039.44;4987572;28;1032;-53
2023/12/08 03:38:19;;;;;;;;;;;;;;;16.28;47.71;101045.38;4979783;28;1077;-52
2023/12/08 03:40:44;;;;;;;;;;;;;;;15.94;48.17;101046.53;4988606;28;1977;-53
2023/12/08 03:43:10;;;;;;;;;;;;;;;16.59;46.71;101049.13;4994950;28;1129;-52
2023/12/08 03:45:36;;;;;;;;;;;;;;;17.09;45.62;101042.19;4996884;28;1138;-55
2023/12/08 03:48:01;;;;;;;;;;;;;;;16.22;47.49;101039.03;4994184;28;1119;-53
2023/12/08 03:50:27;;;;;;;;;;;;;;;15.86;48.53;101041.53;4977398;28;1124;-54
2023/12/08 03:52:54;;;;;;;;;;;;;;;16.67;46.55;101040.38;4990063;28;1088;-55
2023/12/08 03:55:20;;;;;;;;;;;;;;;17.01;45.64;101037.25;4977109;28;958;-54
2023/12/08 03:57:46;;;;;;;;;;;;;;;16.20;47.48;101038.47;4990535;28;1096;-54
2023/12/08 04:00:12;;;;;;;;;;;;;;;15.89;48.25;101032.75;4986371;28;1898;-54
2023/12/08 04:02:38;;;;;;;;;;;;;;;16.16;48.10;101034.59;4995901;28;1161;-52
2023/12/08 04:05:04;;;;;;;;;;;;;;;17.19;45.23;101043.34;4989298;28;1471;-54
2023/12/08 04:07:29;;;;;;;;;;;;;;;16.28;47.58;101039.91;4997742;28;1083;-53
2023/12/08 04:09:55;;;;;;;;;;;;;;;16.21;47.57;101029.16;4990309;28;1092;-50
2023/12/08 04:12:21;;;;;;;;;;;;;;;17.06;45.50;101039.19;5000014;28;1151;-50
2023/12/08 04:14:46;;;;;;;;;;;;;;;16.22;47.50;101041.78;5000493;28;1111;-52
2023/12/08 04:17:12;;;;;;;;;;;;;;;16.20;47.84;101046.69;4998052;28;1039;-52
2023/12/08 04:19:38;;;;;;;;;;;;;;;17.28;45.15;101045.28;4991487;28;1144;-52
2023/12/08 04:22:03;;;;;;;;;;;;;;;16.34;47.21;101042.41;4993180;28;1906;-55
2023/12/08 04:24:29;;;;;;;;;;;;;;;15.93;48.27;101042.13;4988357;28;1152;-50
2023/12/08 04:26:55;;;;;;;;;;;;;;;15.92;48.23;101034.97;4993835;28;1073;-52
2023/12/08 04:29:20;;;;;;;;;;;;;;;17.08;45.42;101035.06;4981782;28;1057;-48
2023/12/08 04:31:46;;;;;;;;;;;;;;;16.16;47.68;101037.34;4999601;28;1092;-49
2023/12/08 04:34:11;;;;;;;;;;;;;;;15.81;48.36;101044.22;5000185;28;1122;-50
2023/12/08 04:36:37;;;;;;;;;;;;;;;16.95;45.85;101046.56;4985346;28;1171;-53
2023/12/08 04:39:02;;;;;;;;;;;;;;;16.85;46.11;101041.81;4988671;28;1160;-54
2023/12/08 04:41:28;;;;;;;;;;;;;;;16.16;47.54;101034.59;4999557;28;1965;-55
2023/12/08 04:43:53;;;;;;;;;;;;;;;16.59;46.77;101038.97;4999634;28;1139;-52
2023/12/08 04:46:19;;;;;;;;;;;;;;;17.17;45.15;101031.81;4986371;28;1132;-46
2023/12/08 04:48:45;;;;;;;;;;;;;;;16.31;47.14;101028.38;4991646;28;2356;-54
2023/12/08 04:51:10;;;;;;;;;;;;;;;15.89;48.07;101035.50;4985089;28;1914;-51
2023/12/08 04:53:36;;;;;;;;;;;;;;;16.57;46.83;101041.16;4984741;28;2053;-53
2023/12/08 04:56:02;;;;;;;;;;;;;;;17.17;45.15;101037.28;4987946;28;1957;-54
2023/12/08 04:58:27;;;;;;;;;;;;;;;16.30;47.09;101052.28;4979978;28;1844;-50
2023/12/08 05:00:53;;;;;;;;;;;;;;;15.96;47.87;101051.75;4991214;28;2127;-51
2023/12/08 05:03:19;;;;;;;;;;;;;;;16.31;47.11;101044.84;4979283;28;2128;-51
2023/12/08 05:05:44;;;;;;;;;;;;;;;17.14;44.18;101044.16;4993884;28;1100;-51
2023/12/08 05:08:10;;;;;;;;;;;;;;;16.31;46.25;101023.72;4999694;28;1114;-52
2023/12/08 05:10:36;;;;;;;;;;;;;;;16.11;46.24;101031.84;4997340;28;1025;-53
2023/12/08 05:13:01;;;;;;;;;;;;;;;17.21;44.10;101050.22;4979509;28;1117;-54
2023/12/08 05:15:27;;;;;;;;;;;;;;;17.20;43.84;101047.75;4981213;28;1064;-52
2023/12/08 05:17:52;;;;;;;;;;;;;;;16.55;45.45;101050.75;4992618;28;1031;-53
2023/12/08 05:20:18;;;;;;;;;;;;;;;16.16;46.47;101046.41;4998725;28;1910;-51
2023/12/08 05:22:44;;;;;;;;;;;;;;;15.92;47.33;101048.69;4990236;28;1067;-52
2023/12/08 05:25:10;;;;;;;;;;;;;;;15.71;48.02;101056.75;4994267;28;1223;-51
2023/12/08 05:27:35;;;;;;;;;;;;;;;15.86;47.61;101063.47;4998628;28;1118;-52
2023/12/08 05:30:01;;;;;;;;;;;;;;;17.66;43.49;101067.06;5010781;28;1032;-51
2023/12/08 05:32:28;;;;;;;;;;;;;;;16.70;45.65;101060.97;4979379;28;1886;-51
2023/12/08 05:34:53;;;;;;;;;;;;;;;17.96;43.12;101065.44;4992121;28;1111;-50
2023/12/08 05:37:19;;;;;;;;;;;;;;;17.83;43.04;101053.03;4985070;28;1132;-53
2023/12/08 05:39:45;;;;;;;;;;;;;;;16.74;45.60;101064.84;4985627;28;1148;-50
2023/12/08 05:42:10;;;;;;;;;;;;;;;17.95;43.59;101059.13;4994641;28;1965;-52
2023/12/08 05:44:36;;;;;;;;;;;;;;;17.12;45.27;101051.00;4993654;28;1148;-51
2023/12/08 05:47:02;;;;;;;;;;;;;;;16.73;46.04;101044.81;4990501;28;1159;-51
2023/12/08 05:49:27;;;;;;;;;;;;;;;17.92;43.97;101047.81;4980557;28;1141;-49
2023/12/08 05:51:53;;;;;;;;;;;;;;;17.38;45.32;101054.66;4990602;28;1024;-49
2023/12/08 05:54:19;;;;;;;;;;;;;;;18.81;41.94;101056.41;4989256;28;1021;-47
2023/12/08 05:56:44;;;;;;;;;;;;;;;17.95;43.42;101059.13;4986667;28;1103;-51
2023/12/08 05:59:10;;;;;;;;;;;;;;;17.74;44.03;101073.91;4996435;28;1111;-49
2023/12/08 06:01:35;;;;;;;;;;;;;;;18.96;41.06;101071.28;4986061;28;1906;-54
2023/12/08 06:04:01;;;;;;;;;;;;;;;17.54;44.32;101066.50;4994672;28;2625;-55
2023/12/08 06:06:31;;;;;;;;;;;;;;;17.81;44.07;101063.50;4991824;28;1395;-50
2023/12/08 06:08:57;;;;;;;;;;;;;;;17.84;43.70;101071.19;4997891;28;1051;-51
2023/12/08 06:11:23;;;;;;;;;;;;;;;18.61;42.28;101070.28;4985323;28;1079;-51
2023/12/08 06:13:48;;;;;;;;;;;;;;;19.48;40.36;101066.31;4985647;28;1118;-54
2023/12/08 06:16:14;;;;;;;;;;;;;;;15.47;50.41;101071.84;4997102;28;1100;-52
2023/12/08 06:18:40;;;;;;;;;;;;;;;18.45;42.83;101067.59;4990240;28;1012;-52
2023/12/08 06:21:05;;;;;;;;;;;;;;;18.23;43.06;101065.16;4985998;28;1974;-49
2023/12/08 06:23:31;;;;;;;;;;;;;;;17.38;45.08;101068.41;4982697;28;1436;-54
2023/12/08 06:25:56;;;;;;;;;;;;;;;18.43;42.91;101066.22;4985846;28;1222;-51
2023/12/08 06:28:22;;;;;;;;;;;;;;;17.67;44.42;101082.47;4994153;28;1013;-53
2023/12/08 06:30:48;;;;;;;;;;;;;;;18.77;42.28;101076.56;4978874;28;1058;-54
2023/12/08 06:33:13;;;;;;;;;;;;;;;18.46;42.41;101080.22;4990745;28;2405;-52
2023/12/08 06:35:39;;;;;;;;;;;;;;;16.05;49.50;101078.44;4986060;28;1135;-53
2023/12/08 06:38:04;;;;;;;;;;;;;;;18.69;42.63;101083.50;4992489;28;1073;-52
2023/12/08 06:40:30;;;;;;;;;;;;;;;17.92;43.90;101064.34;4965389;28;1985;-51
2023/12/08 06:42:56;;;;;;;;;;;;;;;17.97;44.38;101077.28;4985036;28;1171;-49
2023/12/08 06:45:21;;;;;;;;;;;;;;;18.97;41.73;101083.94;4997492;28;1091;-50
2023/12/08 06:47:47;;;;;;;;;;;;;;;17.71;44.35;101091.81;4996789;28;1048;-52
2023/12/08 06:50:12;;;;;;;;;;;;;;;18.80;42.53;101079.59;4991038;28;1037;-50
2023/12/08 06:52:38;;;;;;;;;;;;;;;18.25;43.27;101084.13;4990728;28;1064;-51
2023/12/08 06:55:04;;;;;;;;;;;;;;;17.57;44.54;101083.28;4996351;28;1263;-52
2023/12/08 06:57:29;;;;;;;;;;;;;;;18.95;42.01;101080.66;4997240;28;1107;-53
2023/12/08 06:59:55;;;;;;;;;;;;;;;17.85;44.19;101089.34;4990007;28;1376;-48
2023/12/08 07:02:21;;;;;;;;;;;;;;;19.14;41.72;101095.44;4981155;28;1910;-51
2023/12/08 07:04:46;;;;;;;;;;;;;;;16.40;47.50;101079.75;4990664;28;1045;-48
2023/12/08 07:07:15;;;;;;;;;;;;;;;17.52;45.86;101093.44;4983781;28;1222;-51
2023/12/08 07:09:41;;;;;;;;;;;;;;;19.19;41.67;101093.78;4996059;28;1095;-49
2023/12/08 07:12:06;;;;;;;;;;;;;;;17.84;44.45;101089.59;4997022;28;1005;-49
2023/12/08 07:14:32;;;;;;;;;;;;;;;18.49;43.40;101080.78;4981227;28;1075;-50
2023/12/08 07:16:58;;;;;;;;;;;;;;;18.56;42.77;101075.81;4986819;28;1020;-50
2023/12/08 07:19:24;;;;;;;;;;;;;;;17.69;44.72;101085.75;4985825;28;1060;-51
2023/12/08 07:21:50;;;;;;;;;;;;;;;18.87;42.53;101092.22;4973299;28;1914;-51
2023/12/08 07:24:16;;;;;;;;;;;;;;;18.02;44.07;101091.03;4981466;28;1326;-52
2023/12/08 07:26:42;;;;;;;;;;;;;;;18.66;42.95;101085.97;4984537;28;1054;-51
2023/12/08 07:29:07;;;;;;;;;;;;;;;17.48;44.97;101081.34;4985173;28;1307;-53
2023/12/08 07:31:33;;;;;;;;;;;;;;;16.82;47.68;101093.72;4972603;28;1107;-51
2023/12/08 07:33:58;;;;;;;;;;;;;;;19.07;42.21;101091.34;4981245;28;2369;-50
2023/12/08 07:36:24;;;;;;;;;;;;;;;15.60;50.02;101078.81;4996271;28;1290;-52
2023/12/08 07:38:49;;;;;;;;;;;;;;;17.84;45.15;101093.19;4971994;28;1280;-51
2023/12/08 07:41:15;;;;;;;;;;;;;;;18.94;42.35;101074.34;4994345;28;1914;-51
2023/12/08 07:43:41;;;;;;;;;;;;;;;17.67;44.93;101090.72;4977402;28;1175;-51
2023/12/08 07:46:07;;;;;;;;;;;;;;;18.51;43.37;101078.56;4984427;28;1139;-51
2023/12/08 07:48:33;;;;;;;;;;;;;;;18.29;43.54;101085.22;4989550;28;1309;-50
2023/12/08 07:50:58;;;;;;;;;;;;;;;17.65;44.67;101105.84;4990759;28;1222;-52
2023/12/08 07:53:24;;;;;;;;;;;;;;;19.11;42.09;101109.81;4989488;28;1013;-53
2023/12/08 07:55:49;;;;;;;;;;;;;;;17.87;44.44;101113.84;4993438;28;1067;-51
2023/12/08 07:58:15;;;;;;;;;;;;;;;18.43;43.62;101097.31;4984247;28;1116;-48
2023/12/08 08:00:40;;;;;;;;;;;;;;;18.44;43.11;101096.22;4990036;28;1906;-51
2023/12/08 08:03:06;;;;;;;;;;;;;;;17.67;44.55;101100.88;4979894;28;2281;-51
2023/12/08 08:05:32;;;;;;;;;;;;;;;18.89;42.42;101090.88;4994983;28;1158;-52
2023/12/08 08:07:57;;;;;;;;;;;;;;;17.92;44.20;101087.19;4992796;28;1089;-52
2023/12/08 08:10:23;;;;;;;;;;;;;;;17.49;44.50;101093.97;4990815;28;1087;-51
2023/12/08 08:12:48;;;;;;;;;;;;;;;18.51;42.98;101097.84;4981092;28;1053;-50
2023/12/08 08:15:14;;;;;;;;;;;;;;;17.47;44.91;101096.19;4994571;28;1044;-52
2023/12/08 08:17:40;;;;;;;;;;;;;;;18.58;43.25;101101.97;4983519;28;1120;-51
2023/12/08 08:20:06;;;;;;;;;;;;;;;18.15;43.86;101103.41;4991274;28;1977;-53
2023/12/08 08:22:32;;;;;;;;;;;;;;;17.52;44.52;101098.94;4969632;28;1144;-48
2023/12/08 08:24:58;;;;;;;;;;;;;;;18.38;43.62;101105.56;4986997;28;1396;-52
2023/12/08 08:27:25;;;;;;;;;;;;;;;17.65;45.12;101117.66;4984020;28;1099;-51
2023/12/08 08:29:50;;;;;;;;;;;;;;;19.28;41.55;101103.13;4982830;28;1173;-51
2023/12/08 08:32:17;;;;;;;;;;;;;;;16.02;48.81;101111.88;4994849;28;1871;-52
2023/12/08 08:34:43;;;;;;;;;;;;;;;17.81;45.37;101114.91;4992312;28;1010;-51
2023/12/08 08:37:08;;;;;;;;;;;;;;;19.36;41.53;101127.31;4980749;28;1036;-51
2023/12/08 08:39:34;;;;;;;;;;;;;;;15.00;51.38;101119.81;4989239;28;1329;-49
2023/12/08 08:41:59;;;;;;;;;;;;;;;18.39;44.01;101111.91;4976585;28;1902;-52
2023/12/08 08:44:26;;;;;;;;;;;;;;;18.65;42.56;101087.91;4988778;28;1025;-49
2023/12/08 08:46:52;;;;;;;;;;;;;;;15.73;50.82;101094.84;4969854;28;1274;-51
2023/12/08 08:49:17;;;;;;;;;;;;;;;18.84;42.71;101090.84;4979119;28;1198;-51
2023/12/08 08:51:44;;;;;;;;;;;;;;;18.09;44.27;101092.41;4973983;28;1024;-51
2023/12/08 08:54:09;;;;;;;;;;;;;;;17.53;45.05;101090.41;4972248;28;1072;-50
2023/12/08 08:56:35;;;;;;;;;;;;;;;18.48;43.39;101088.19;4997726;28;1461;-53
2023/12/08 08:59:03;;;;;;;;;;;;;;;17.97;44.78;101082.78;4984440;28;1243;-52
2023/12/08 09:01:28;;;;;;;;;;;;;;;19.54;41.29;101086.41;4999229;28;1902;-49
2023/12/08 09:03:54;;;;;;;;;;;;;;;15.78;50.26;101085.84;4976467;28;2393;-52
2023/12/08 09:06:19;;;;;;;;;;;;;;;18.47;43.88;101087.38;4981960;28;1310;-52
2023/12/08 09:08:45;;;;;;;;;;;;;;;18.83;42.49;101077.38;4980799;28;1188;-52
2023/12/08 09:11:11;;;;;;;;;;;;;;;16.07;50.12;101089.97;4968360;28;1032;-48
2023/12/08 09:13:37;;;;;;;;;;;;;;;19.01;42.79;101087.78;4982872;28;1029;-51
2023/12/08 09:16:03;;;;;;;;;;;;;;;16.47;47.94;101084.22;4973066;28;1116;-51
2023/12/08 09:18:28;;;;;;;;;;;;;;;17.41;46.80;101085.16;4982329;28;1092;-51
2023/12/08 09:20:54;;;;;;;;;;;;;;;19.32;41.88;101085.72;5008441;28;1905;-51
2023/12/08 09:23:19;;;;;;;;;;;;;;;15.03;51.82;101084.53;4980032;28;1049;-49
2023/12/08 09:25:45;;;;;;;;;;;;;;;18.26;44.37;101091.28;4982700;28;1310;-52
2023/12/08 09:28:11;;;;;;;;;;;;;;;18.54;43.09;101073.34;4998830;28;1321;-52
2023/12/08 09:30:36;;;;;;;;;;;;;;;17.65;44.91;101073.66;4982743;28;1116;-50
2023/12/08 09:33:02;;;;;;;;;;;;;;;19.10;42.39;101069.56;4982074;28;1823;-52
2023/12/08 09:35:28;;;;;;;;;;;;;;;15.25;50.78;101067.25;4987785;28;1159;-52
2023/12/08 09:37:54;;;;;;;;;;;;;;;18.15;44.72;101067.66;4984139;28;1337;-49
2023/12/08 09:40:19;;;;;;;;;;;;;;;18.94;42.36;101056.97;4986512;28;1906;-50
2023/12/08 09:42:56;;;;;;;;;;;;;;;17.76;44.71;101056.06;4991809;28;1231;-51
2023/12/08 09:45:21;;;;;;;;;;;;;;;18.05;44.48;101050.03;4972449;28;1060;-51
2023/12/08 09:47:47;;;;;;;;;;;;;;;17.99;44.11;101059.38;4976533;28;1108;-52
2023/12/08 09:50:12;;;;;;;;;;;;;;;17.87;44.78;101058.81;4967855;28;1087;-51
2023/12/08 09:52:38;;;;;;;;;;;;;;;19.31;41.43;101053.72;4995513;28;1147;-49
2023/12/08 09:55:04;;;;;;;;;;;;;;;14.97;52.54;101062.81;4989683;28;1305;-50
2023/12/08 09:57:30;;;;;;;;;;;;;;;18.56;43.63;101059.28;4978647;28;1020;-52
2023/12/08 10:00:05;;;;;;;;;;;;;;;18.38;43.50;101060.69;5001447;28;1169;-51
2023/12/08 10:02:32;;;;;;;;;;;;;;;17.62;44.95;101065.94;4985298;28;2361;-51
2023/12/08 10:04:57;;;;;;;;;;;;;;;18.79;42.53;101050.38;4988955;28;1206;-52
2023/12/08 10:07:23;;;;;;;;;;;;;;;17.74;44.57;101052.75;4990593;28;1151;-52
2023/12/08 10:09:49;;;;;;;;;;;;;;;18.59;43.26;101050.44;5002800;28;921;-47
2023/12/08 10:12:15;;;;;;;;;;;;;;;16.49;47.52;101051.81;4988438;28;1108;-50
2023/12/08 10:14:56;;;;;;;;;;;;;;;17.23;46.59;101047.19;4989098;28;1254;-52
2023/12/08 10:17:22;;;;;;;;;;;;;;;19.12;42.00;101038.94;4991993;28;1306;-48
2023/12/08 10:19:47;;;;;;;;;;;;;;;17.77;44.75;101041.19;4996610;28;1104;-52
2023/12/08 10:22:13;;;;;;;;;;;;;;;18.89;42.36;101040.47;4995601;28;1983;-52
2023/12/08 10:24:39;;;;;;;;;;;;;;;15.99;48.84;101034.75;4978798;28;1045;-52
2023/12/08 10:27:04;;;;;;;;;;;;;;;17.55;45.97;101044.22;4978595;28;1125;-51
2023/12/08 10:29:30;;;;;;;;;;;;;;;19.34;41.38;101034.97;4997631;28;1065;-49
2023/12/08 10:31:56;;;;;;;;;;;;;;;14.94;51.87;101039.53;4984347;28;1079;-51
2023/12/08 10:34:22;;;;;;;;;;;;;;;18.39;43.74;101030.13;4997040;28;2274;-50
2023/12/08 10:36:48;;;;;;;;;;;;;;;18.55;42.96;101030.94;4994381;28;1167;-51
2023/12/08 10:39:13;;;;;;;;;;;;;;;17.71;44.71;101036.81;4977967;28;1095;-52
2023/12/08 10:41:39;;;;;;;;;;;;;;;18.23;43.88;101031.28;4980559;28;1906;-51
2023/12/08 10:44:07;;;;;;;;;;;;;;;18.23;43.48;101036.78;4987728;28;1136;-50
2023/12/08 10:46:32;;;;;;;;;;;;;;;17.82;44.56;101043.13;4991031;28;1108;-50
2023/12/08 10:48:58;;;;;;;;;;;;;;;19.51;41.10;101037.34;4987399;28;1041;-48
2023/12/08 10:51:23;;;;;;;;;;;;;;;15.07;51.99;101035.56;4992715;28;1219;-49
2023/12/08 10:53:49;;;;;;;;;;;;;;;18.70;42.92;101041.03;5002418;28;1084;-51
2023/12/08 10:56:15;;;;;;;;;;;;;;;16.79;46.77;101044.81;4983231;28;1067;-46
2023/12/08 10:58:43;;;;;;;;;;;;;;;17.21;46.90;101041.97;4978146;28;1028;-52
2023/12/08 11:01:12;;;;;;;;;;;;;;;19.24;41.80;101033.91;4994136;28;1898;-51
2023/12/08 11:03:38;;;;;;;;;;;;;;;18.07;43.90;101027.72;4993046;28;2125;-49
2023/12/08 11:06:07;;;;;;;;;;;;;;;17.60;44.66;101029.66;4996720;28;1091;-53
2023/12/08 11:08:33;;;;;;;;;;;;;;;18.42;43.33;101021.31;4988992;28;1047;-51
2023/12/08 11:10:58;;;;;;;;;;;;;;;17.88;44.43;101020.03;4984373;28;1180;-50
2023/12/08 11:13:28;;;;;;;;;;;;;;;19.56;40.90;101009.69;4985782;28;1116;-50
2023/12/08 11:16:13;;;;;;;;;;;;;;;15.00;51.56;101018.50;4982160;28;973;-50
2023/12/08 11:18:39;;;;;;;;;;;;;;;18.84;42.61;101007.38;4989057;28;1185;-50
2023/12/08 11:21:09;;;;;;;;;;;;;;;16.64;47.03;101005.22;4997838;28;1898;-51
2023/12/08 11:23:35;;;;;;;;;;;;;;;17.40;46.14;101003.81;4971083;28;1124;-50
2023/12/08 11:26:19;;;;;;;;;;;;;;;19.27;41.49;100992.00;4997093;28;1060;-50
2023/12/08 11:28:53;;;;;;;;;;;;;;;18.00;44.00;100984.00;4983581;28;1120;-52
2023/12/08 11:31:19;;;;;;;;;;;;;;;17.56;44.48;100998.31;4985909;28;1136;-51
2023/12/08 11:33:51;;;;;;;;;;;;;;;18.40;43.20;100993.25;4986879;28;1855;-48
2023/12/08 11:36:18;;;;;;;;;;;;;;;17.65;44.59;101004.09;4971916;28;1322;-51
2023/12/08 11:38:44;;;;;;;;;;;;;;;19.35;41.06;100989.72;4983475;28;1557;-51
2023/12/08 11:41:11;;;;;;;;;;;;;;;15.19;50.55;100980.59;4993980;28;1923;-52
2023/12/08 11:43:36;;;;;;;;;;;;;;;18.32;43.51;100971.78;4977036;28;1241;-52
2023/12/08 11:46:02;;;;;;;;;;;;;;;18.92;41.74;100960.00;4983307;28;1164;-47
2023/12/08 11:48:28;;;;;;;;;;;;;;;15.94;49.74;100975.22;4996098;28;1091;-51
2023/12/08 11:50:59;;;;;;;;;;;;;;;18.97;42.00;100970.97;4992637;28;1122;-52
2023/12/08 11:53:25;;;;;;;;;;;;;;;15.95;48.75;100970.56;4977550;28;1052;-50
2023/12/08 11:55:51;;;;;;;;;;;;;;;17.84;45.00;100985.91;4990330;28;1180;-47
2023/12/08 11:58:17;;;;;;;;;;;;;;;19.13;41.37;100986.28;4989649;28;901;-52
2023/12/08 12:00:43;;;;;;;;;;;;;;;17.88;44.12;101002.69;4983321;28;1910;-50
2023/12/08 12:03:10;;;;;;;;;;;;;;;17.38;44.79;100997.75;4977515;28;1916;-51
2023/12/08 12:05:38;;;;;;;;;;;;;;;17.30;44.57;100992.78;4977142;28;1088;-49
2023/12/08 12:08:04;;;;;;;;;;;;;;;18.04;43.69;100985.09;4978404;28;1044;-53
2023/12/08 12:10:33;;;;;;;;;;;;;;;17.40;44.71;100994.72;4990169;28;865;-54
2023/12/08 12:13:05;;;;;;;;;;;;;;;18.69;42.49;101008.28;4983275;28;1368;-53
2023/12/08 12:15:33;;;;;;;;;;;;;;;17.64;44.38;101008.75;4996056;28;1044;-53
2023/12/08 12:17:59;;;;;;;;;;;;;;;17.58;44.76;101013.41;4980077;28;1116;-55
2023/12/08 12:20:26;;;;;;;;;;;;;;;18.28;43.08;101014.75;4979723;28;1910;-51
2023/12/08 12:22:52;;;;;;;;;;;;;;;17.71;44.50;101016.72;4969133;28;989;-53
2023/12/08 12:25:18;;;;;;;;;;;;;;;19.34;41.00;101005.47;4985708;28;1603;-49
2023/12/08 12:27:44;;;;;;;;;;;;;;;15.25;50.07;101012.47;4981915;28;1385;-55
2023/12/08 12:30:10;;;;;;;;;;;;;;;18.07;44.00;101017.53;4996755;28;1306;-54
2023/12/08 12:32:36;;;;;;;;;;;;;;;18.66;42.29;101012.41;4988687;28;1828;-54
2023/12/08 12:35:02;;;;;;;;;;;;;;;17.71;44.14;101024.97;4997964;28;1294;-55
2023/12/08 12:37:28;;;;;;;;;;;;;;;18.24;43.28;101016.41;4991237;28;1334;-54
2023/12/08 12:39:53;;;;;;;;;;;;;;;17.83;43.91;101021.97;4991162;28;1322;-53
2023/12/08 12:42:19;;;;;;;;;;;;;;;17.44;44.34;101018.63;4969898;28;1994;-54